sensor_id;sensor_type;location;lat;lon;timestamp;temperature;humidity
3778;DHT22;1904;50.076;8.660;2023-06-26T00:05:38;19.10;1.00
3778;DHT22;1904;50.076;8.660;2023-06-26T00:08:08;19.10;1.00
3778;DHT22;1904;50.076;8.660;2023-06-26T00:17:02;18.90;1.00
3778;DHT22;1904;50.076;8.660;2023-06-26T00:19:55;18.90;1.00
3778;DHT22;1904;50.076;8.660;2023-06-26T00:22:38;18.80;1.00
3778;DHT22;1904;50.076;8.660;2023-06-26T00:25:25;18.80;1.00
3778;DHT22;1904;50.076;8.660;2023-06-26T00:27:51;18.80;1.00
3778;DHT22;1904;50.076;8.660;2023-06-26T00:30:17;18.70;1.00
3778;DHT22;1904;50.076;8.660;2023-06-26T00:32:43;18.60;1.00
3778;DHT22;1904;50.076;8.660;2023-06-26T00:35:09;18.60;1.00
3778;DHT22;1904;50.076;8.660;2023-06-26T00:37:44;18.50;1.00
3778;DHT22;1904;50.076;8.660;2023-06-26T00:40:14;18.50;1.00
3778;DHT22;1904;50.076;8.660;2023-06-26T00:42:40;18.40;1.00
3778;DHT22;1904;50.076;8.660;2023-06-26T00:45:08;18.40;1.00
3778;DHT22;1904;50.076;8.660;2023-06-26T00:47:34;18.30;1.00
3778;DHT22;1904;50.076;8.660;2023-06-26T00:50:02;18.30;1.00
3778;DHT22;1904;50.076;8.660;2023-06-26T00:52:32;18.30;1.00
3778;DHT22;1904;50.076;8.660;2023-06-26T00:55:26;18.20;1.00
3778;DHT22;1904;50.076;8.660;2023-06-26T00:57:56;18.20;1.00
3778;DHT22;1904;50.076;8.660;2023-06-26T01:00:26;18.20;1.00
3778;DHT22;1904;50.076;8.660;2023-06-26T01:02:56;18.10;1.00
3778;DHT22;1904;50.076;8.660;2023-06-26T01:08:45;18.00;1.00
3778;DHT22;1904;50.076;8.660;2023-06-26T01:11:13;17.90;1.00
3778;DHT22;1904;50.076;8.660;2023-06-26T01:13:40;17.90;1.00
3778;DHT22;1904;50.076;8.660;2023-06-26T01:16:06;17.90;1.00
3778;DHT22;1904;50.076;8.660;2023-06-26T01:18:44;17.80;1.00
3778;DHT22;1904;50.076;8.660;2023-06-26T01:21:15;17.70;1.00
3778;DHT22;1904;50.076;8.660;2023-06-26T01:24:02;17.60;1.00
3778;DHT22;1904;50.076;8.660;2023-06-26T01:26:32;17.60;1.00
3778;DHT22;1904;50.076;8.660;2023-06-26T01:29:03;17.60;1.00
3778;DHT22;1904;50.076;8.660;2023-06-26T01:31:30;17.60;1.00
3778;DHT22;1904;50.076;8.660;2023-06-26T01:33:58;17.50;1.00
3778;DHT22;1904;50.076;8.660;2023-06-26T01:36:32;17.50;1.00
3778;DHT22;1904;50.076;8.660;2023-06-26T01:41:56;17.40;1.00
3778;DHT22;1904;50.076;8.660;2023-06-26T01:44:36;17.40;1.00
3778;DHT22;1904;50.076;8.660;2023-06-26T01:50:28;17.30;1.00
3778;DHT22;1904;50.076;8.660;2023-06-26T01:53:12;17.30;1.00
3778;DHT22;1904;50.076;8.660;2023-06-26T01:58:56;17.20;1.00
3778;DHT22;1904;50.076;8.660;2023-06-26T02:01:56;17.20;1.00
3778;DHT22;1904;50.076;8.660;2023-06-26T02:04:21;17.10;1.00
3778;DHT22;1904;50.076;8.660;2023-06-26T02:06:56;17.00;1.00
3778;DHT22;1904;50.076;8.660;2023-06-26T02:09:26;17.00;1.00
3778;DHT22;1904;50.076;8.660;2023-06-26T02:12:25;16.90;1.00
3778;DHT22;1904;50.076;8.660;2023-06-26T02:21:26;16.80;1.00
3778;DHT22;1904;50.076;8.660;2023-06-26T02:23:56;16.80;1.00
3778;DHT22;1904;50.076;8.660;2023-06-26T02:26:26;16.80;1.00
3778;DHT22;1904;50.076;8.660;2023-06-26T02:29:02;16.80;1.00
3778;DHT22;1904;50.076;8.660;2023-06-26T02:34:56;16.70;1.00
3778;DHT22;1904;50.076;8.660;2023-06-26T02:37:26;16.70;1.00
3778;DHT22;1904;50.076;8.660;2023-06-26T02:39:56;16.70;1.00
3778;DHT22;1904;50.076;8.660;2023-06-26T02:42:26;16.60;1.00
3778;DHT22;1904;50.076;8.660;2023-06-26T02:45:26;16.60;1.00
3778;DHT22;1904;50.076;8.660;2023-06-26T02:48:20;16.60;1.00
3778;DHT22;1904;50.076;8.660;2023-06-26T02:50:56;16.50;1.00
3778;DHT22;1904;50.076;8.660;2023-06-26T02:56:38;16.50;1.00
3778;DHT22;1904;50.076;8.660;2023-06-26T02:59:14;16.50;1.00
3778;DHT22;1904;50.076;8.660;2023-06-26T03:02:13;16.40;1.00
3778;DHT22;1904;50.076;8.660;2023-06-26T03:04:39;16.40;1.00
3778;DHT22;1904;50.076;8.660;2023-06-26T03:10:21;16.30;1.00
3778;DHT22;1904;50.076;8.660;2023-06-26T03:12:56;16.30;1.00
3778;DHT22;1904;50.076;8.660;2023-06-26T03:15:26;16.30;1.00
3778;DHT22;1904;50.076;8.660;2023-06-26T03:17:56;16.30;1.00
3778;DHT22;1904;50.076;8.660;2023-06-26T03:20:26;16.20;1.00
3778;DHT22;1904;50.076;8.660;2023-06-26T03:23:02;16.10;1.00
3778;DHT22;1904;50.076;8.660;2023-06-26T03:25:38;16.10;1.00
3778;DHT22;1904;50.076;8.660;2023-06-26T03:28:14;16.20;1.00
3778;DHT22;1904;50.076;8.660;2023-06-26T03:30:56;16.20;1.00
3778;DHT22;1904;50.076;8.660;2023-06-26T03:33:26;16.20;1.00
3778;DHT22;1904;50.076;8.660;2023-06-26T03:35:56;16.20;1.00
3778;DHT22;1904;50.076;8.660;2023-06-26T03:38:26;16.10;1.00
3778;DHT22;1904;50.076;8.660;2023-06-26T03:44:14;16.10;1.00
3778;DHT22;1904;50.076;8.660;2023-06-26T03:46:50;16.00;1.00
3778;DHT22;1904;50.076;8.660;2023-06-26T03:49:26;16.00;1.00
3778;DHT22;1904;50.076;8.660;2023-06-26T03:52:02;16.00;1.00
3778;DHT22;1904;50.076;8.660;2023-06-26T03:57:50;16.10;1.00
3778;DHT22;1904;50.076;8.660;2023-06-26T04:00:26;16.10;1.00
3778;DHT22;1904;50.076;8.660;2023-06-26T04:03:02;16.10;1.00
3778;DHT22;1904;50.076;8.660;2023-06-26T04:08:50;16.20;1.00
3778;DHT22;1904;50.076;8.660;2023-06-26T04:14:56;16.20;1.00
3778;DHT22;1904;50.076;8.660;2023-06-26T04:17:38;16.20;1.00
3778;DHT22;1904;50.076;8.660;2023-06-26T04:20:08;16.20;1.00
3778;DHT22;1904;50.076;8.660;2023-06-26T04:22:44;16.30;1.00
3778;DHT22;1904;50.076;8.660;2023-06-26T04:25:26;16.30;1.00
3778;DHT22;1904;50.076;8.660;2023-06-26T04:28:02;16.40;1.00
3778;DHT22;1904;50.076;8.660;2023-06-26T04:30:28;16.40;1.00
3778;DHT22;1904;50.076;8.660;2023-06-26T04:33:18;16.50;1.00
3778;DHT22;1904;50.076;8.660;2023-06-26T04:35:44;16.60;1.00
3778;DHT22;1904;50.076;8.660;2023-06-26T04:38:14;16.60;1.00
3778;DHT22;1904;50.076;8.660;2023-06-26T04:40:45;16.70;1.00
3778;DHT22;1904;50.076;8.660;2023-06-26T04:43:10;16.80;1.00
3778;DHT22;1904;50.076;8.660;2023-06-26T04:45:38;16.80;1.00
3778;DHT22;1904;50.076;8.660;2023-06-26T04:48:14;17.00;1.00
3778;DHT22;1904;50.076;8.660;2023-06-26T04:50:44;17.00;1.00
3778;DHT22;1904;50.076;8.660;2023-06-26T04:53:32;17.20;1.00
3778;DHT22;1904;50.076;8.660;2023-06-26T04:56:14;17.20;1.00
3778;DHT22;1904;50.076;8.660;2023-06-26T04:58:56;17.40;1.00
3778;DHT22;1904;50.076;8.660;2023-06-26T05:01:56;17.40;1.00
3778;DHT22;1904;50.076;8.660;2023-06-26T05:04:26;17.50;1.00
3778;DHT22;1904;50.076;8.660;2023-06-26T05:07:02;17.70;1.00
3778;DHT22;1904;50.076;8.660;2023-06-26T05:09:28;17.80;1.00
3778;DHT22;1904;50.076;8.660;2023-06-26T05:12:08;17.90;1.00
3778;DHT22;1904;50.076;8.660;2023-06-26T05:14:34;18.00;1.00
3778;DHT22;1904;50.076;8.660;2023-06-26T05:17:20;18.10;1.00
3778;DHT22;1904;50.076;8.660;2023-06-26T05:19:45;18.30;1.00
3778;DHT22;1904;50.076;8.660;2023-06-26T05:22:32;18.50;1.00
3778;DHT22;1904;50.076;8.660;2023-06-26T05:25:09;18.50;1.00
3778;DHT22;1904;50.076;8.660;2023-06-26T05:28:02;18.70;1.00
3778;DHT22;1904;50.076;8.660;2023-06-26T05:30:38;18.80;1.00
3778;DHT22;1904;50.076;8.660;2023-06-26T05:33:11;19.00;1.00
3778;DHT22;1904;50.076;8.660;2023-06-26T05:35:37;19.10;1.00
3778;DHT22;1904;50.076;8.660;2023-06-26T05:38:08;19.50;1.00
3778;DHT22;1904;50.076;8.660;2023-06-26T05:40:38;19.50;1.00
3778;DHT22;1904;50.076;8.660;2023-06-26T05:43:08;19.90;1.00
3778;DHT22;1904;50.076;8.660;2023-06-26T05:45:50;20.00;1.00
3778;DHT22;1904;50.076;8.660;2023-06-26T05:48:16;20.20;1.00
3778;DHT22;1904;50.076;8.660;2023-06-26T05:50:56;20.40;1.00
3778;DHT22;1904;50.076;8.660;2023-06-26T05:53:44;20.50;1.00
3778;DHT22;1904;50.076;8.660;2023-06-26T05:56:36;20.70;1.00
3778;DHT22;1904;50.076;8.660;2023-06-26T05:59:03;20.70;1.00
3778;DHT22;1904;50.076;8.660;2023-06-26T06:01:38;20.90;1.00
3778;DHT22;1904;50.076;8.660;2023-06-26T06:04:14;21.00;1.00
3778;DHT22;1904;50.076;8.660;2023-06-26T06:07:02;21.20;1.00
3778;DHT22;1904;50.076;8.660;2023-06-26T06:09:44;21.40;1.00
3778;DHT22;1904;50.076;8.660;2023-06-26T06:12:10;21.50;1.00
3778;DHT22;1904;50.076;8.660;2023-06-26T06:14:56;21.60;1.00
3778;DHT22;1904;50.076;8.660;2023-06-26T06:17:56;21.80;1.00
3778;DHT22;1904;50.076;8.660;2023-06-26T06:20:26;22.10;1.00
3778;DHT22;1904;50.076;8.660;2023-06-26T06:23:20;22.10;1.00
3778;DHT22;1904;50.076;8.660;2023-06-26T06:29:08;22.30;1.00
3778;DHT22;1904;50.076;8.660;2023-06-26T06:35:14;22.40;1.00
3778;DHT22;1904;50.076;8.660;2023-06-26T06:37:50;22.60;1.00
3778;DHT22;1904;50.076;8.660;2023-06-26T06:40:20;22.80;1.00
3778;DHT22;1904;50.076;8.660;2023-06-26T06:46:08;23.00;1.00
3778;DHT22;1904;50.076;8.660;2023-06-26T06:51:56;23.40;1.00
3778;DHT22;1904;50.076;8.660;2023-06-26T06:54:22;23.60;1.00
3778;DHT22;1904;50.076;8.660;2023-06-26T07:00:12;23.80;1.00
3778;DHT22;1904;50.076;8.660;2023-06-26T07:02:42;24.00;1.00
3778;DHT22;1904;50.076;8.660;2023-06-26T07:05:09;24.00;1.00
3778;DHT22;1904;50.076;8.660;2023-06-26T07:07:56;24.10;1.00
3778;DHT22;1904;50.076;8.660;2023-06-26T07:10:50;24.20;1.00
3778;DHT22;1904;50.076;8.660;2023-06-26T07:13:32;24.40;1.00
3778;DHT22;1904;50.076;8.660;2023-06-26T07:19:19;24.80;1.00
3778;DHT22;1904;50.076;8.660;2023-06-26T07:22:08;24.90;1.00
3778;DHT22;1904;50.076;8.660;2023-06-26T07:25:02;25.10;1.00
3778;DHT22;1904;50.076;8.660;2023-06-26T07:27:39;25.20;1.00
3778;DHT22;1904;50.076;8.660;2023-06-26T07:30:32;25.40;1.00
3778;DHT22;1904;50.076;8.660;2023-06-26T07:36:26;25.70;1.00
3778;DHT22;1904;50.076;8.660;2023-06-26T07:39:02;26.00;1.00
3778;DHT22;1904;50.076;8.660;2023-06-26T07:41:38;26.10;1.00
3778;DHT22;1904;50.076;8.660;2023-06-26T07:44:38;26.20;1.00
3778;DHT22;1904;50.076;8.660;2023-06-26T07:47:26;26.20;1.00
3778;DHT22;1904;50.076;8.660;2023-06-26T07:50:26;26.30;1.00
3778;DHT22;1904;50.076;8.660;2023-06-26T07:52:51;26.50;1.00
3778;DHT22;1904;50.076;8.660;2023-06-26T07:55:18;26.60;1.00
3778;DHT22;1904;50.076;8.660;2023-06-26T07:57:56;26.90;1.00
3778;DHT22;1904;50.076;8.660;2023-06-26T08:00:56;27.00;1.00
3778;DHT22;1904;50.076;8.660;2023-06-26T08:03:32;27.00;1.00
3778;DHT22;1904;50.076;8.660;2023-06-26T08:05:58;27.00;1.00
3778;DHT22;1904;50.076;8.660;2023-06-26T08:08:26;27.10;1.00
3778;DHT22;1904;50.076;8.660;2023-06-26T08:10:52;27.20;1.00
3778;DHT22;1904;50.076;8.660;2023-06-26T08:13:38;27.40;1.00
3778;DHT22;1904;50.076;8.660;2023-06-26T08:19:25;28.00;1.00
3778;DHT22;1904;50.076;8.660;2023-06-26T08:21:56;28.30;1.00
3778;DHT22;1904;50.076;8.660;2023-06-26T08:24:26;28.50;1.00
3778;DHT22;1904;50.076;8.660;2023-06-26T08:30:08;28.70;1.00
3778;DHT22;1904;50.076;8.660;2023-06-26T08:35:56;29.00;1.00
3778;DHT22;1904;50.076;8.660;2023-06-26T08:38:22;29.00;1.00
3778;DHT22;1904;50.076;8.660;2023-06-26T08:40:56;28.80;1.00
3778;DHT22;1904;50.076;8.660;2023-06-26T08:43:26;28.90;1.00
3778;DHT22;1904;50.076;8.660;2023-06-26T08:45:56;28.60;1.00
3778;DHT22;1904;50.076;8.660;2023-06-26T08:49:18;28.40;1.00
3778;DHT22;1904;50.076;8.660;2023-06-26T08:51:57;28.40;1.00
3778;DHT22;1904;50.076;8.660;2023-06-26T08:54:52;28.60;1.00
3778;DHT22;1904;50.076;8.660;2023-06-26T08:57:27;28.50;1.00
3778;DHT22;1904;50.076;8.660;2023-06-26T08:59:56;28.50;1.00
3778;DHT22;1904;50.076;8.660;2023-06-26T09:02:56;28.60;1.00
3778;DHT22;1904;50.076;8.660;2023-06-26T09:05:38;28.90;1.00
3778;DHT22;1904;50.076;8.660;2023-06-26T09:08:08;28.80;1.00
3778;DHT22;1904;50.076;8.660;2023-06-26T09:13:56;29.20;1.00
3778;DHT22;1904;50.076;8.660;2023-06-26T09:23:32;29.20;1.00
3778;DHT22;1904;50.076;8.660;2023-06-26T09:26:32;29.40;1.00
3778;DHT22;1904;50.076;8.660;2023-06-26T09:28:58;29.70;1.00
3778;DHT22;1904;50.076;8.660;2023-06-26T09:31:51;29.90;1.00
3778;DHT22;1904;50.076;8.660;2023-06-26T09:34:46;29.90;1.00
3778;DHT22;1904;50.076;8.660;2023-06-26T09:37:12;30.00;1.00
3778;DHT22;1904;50.076;8.660;2023-06-26T09:40:02;30.10;1.00
3778;DHT22;1904;50.076;8.660;2023-06-26T09:42:38;30.30;1.00
3778;DHT22;1904;50.076;8.660;2023-06-26T09:45:18;30.30;1.00
3778;DHT22;1904;50.076;8.660;2023-06-26T09:47:44;30.40;1.00
3778;DHT22;1904;50.076;8.660;2023-06-26T09:50:23;30.50;1.00
3778;DHT22;1904;50.076;8.660;2023-06-26T09:53:15;30.80;1.00
3778;DHT22;1904;50.076;8.660;2023-06-26T09:55:50;31.20;1.00
3778;DHT22;1904;50.076;8.660;2023-06-26T09:58:21;31.20;1.00
3778;DHT22;1904;50.076;8.660;2023-06-26T10:01:02;31.30;1.00
3778;DHT22;1904;50.076;8.660;2023-06-26T10:03:56;31.10;1.00
3778;DHT22;1904;50.076;8.660;2023-06-26T10:06:28;31.50;1.00
3778;DHT22;1904;50.076;8.660;2023-06-26T10:09:03;31.50;1.00
3778;DHT22;1904;50.076;8.660;2023-06-26T10:12:03;31.40;1.00
3778;DHT22;1904;50.076;8.660;2023-06-26T10:14:44;31.30;1.00
3778;DHT22;1904;50.076;8.660;2023-06-26T10:17:11;31.50;1.00
3778;DHT22;1904;50.076;8.660;2023-06-26T10:19:58;31.70;1.00
3778;DHT22;1904;50.076;8.660;2023-06-26T10:26:02;31.70;1.00
3778;DHT22;1904;50.076;8.660;2023-06-26T10:28:50;31.90;1.00
3778;DHT22;1904;50.076;8.660;2023-06-26T10:34:33;31.40;1.00
3778;DHT22;1904;50.076;8.660;2023-06-26T10:40:28;31.10;1.00
3778;DHT22;1904;50.076;8.660;2023-06-26T10:43:07;31.00;1.00
3778;DHT22;1904;50.076;8.660;2023-06-26T10:52:01;31.30;1.00
3778;DHT22;1904;50.076;8.660;2023-06-26T10:54:44;31.30;1.00
3778;DHT22;1904;50.076;8.660;2023-06-26T10:57:23;31.40;1.00
3778;DHT22;1904;50.076;8.660;2023-06-26T11:16:02;31.50;1.00
3778;DHT22;1904;50.076;8.660;2023-06-26T11:18:28;31.40;1.00
3778;DHT22;1904;50.076;8.660;2023-06-26T11:24:33;31.70;1.00
3778;DHT22;1904;50.076;8.660;2023-06-26T11:30:25;31.40;1.00
3778;DHT22;1904;50.076;8.660;2023-06-26T11:36:13;31.70;1.00
3778;DHT22;1904;50.076;8.660;2023-06-26T11:39:14;31.80;1.00
3778;DHT22;1904;50.076;8.660;2023-06-26T11:42:12;32.10;1.00
3778;DHT22;1904;50.076;8.660;2023-06-26T11:45:08;32.20;1.00
3778;DHT22;1904;50.076;8.660;2023-06-26T11:51:26;32.00;1.00
3778;DHT22;1904;50.076;8.660;2023-06-26T11:57:22;32.10;1.00
3778;DHT22;1904;50.076;8.660;2023-06-26T12:06:35;33.00;1.00
3778;DHT22;1904;50.076;8.660;2023-06-26T12:15:31;33.60;1.00
3778;DHT22;1904;50.076;8.660;2023-06-26T12:24:22;33.00;1.00
3778;DHT22;1904;50.076;8.660;2023-06-26T12:27:02;33.00;1.00
3778;DHT22;1904;50.076;8.660;2023-06-26T12:30:03;32.70;1.00
3778;DHT22;1904;50.076;8.660;2023-06-26T12:32:32;32.50;1.00
3778;DHT22;1904;50.076;8.660;2023-06-26T12:38:56;32.20;1.00
3778;DHT22;1904;50.076;8.660;2023-06-26T12:41:24;32.10;1.00
3778;DHT22;1904;50.076;8.660;2023-06-26T12:44:17;32.10;1.00
3778;DHT22;1904;50.076;8.660;2023-06-26T12:47:01;32.00;1.00
3778;DHT22;1904;50.076;8.660;2023-06-26T12:52:48;32.20;1.00
3778;DHT22;1904;50.076;8.660;2023-06-26T12:55:15;32.20;1.00
3778;DHT22;1904;50.076;8.660;2023-06-26T12:57:50;32.20;1.00
3778;DHT22;1904;50.076;8.660;2023-06-26T13:00:32;32.90;1.00
3778;DHT22;1904;50.076;8.660;2023-06-26T13:06:21;33.10;1.00
3778;DHT22;1904;50.076;8.660;2023-06-26T13:08:46;33.20;1.00
3778;DHT22;1904;50.076;8.660;2023-06-26T13:14:26;32.80;1.00
3778;DHT22;1904;50.076;8.660;2023-06-26T13:17:03;32.90;1.00
3778;DHT22;1904;50.076;8.660;2023-06-26T13:19:32;32.70;1.00
3778;DHT22;1904;50.076;8.660;2023-06-26T13:22:32;32.70;1.00
3778;DHT22;1904;50.076;8.660;2023-06-26T13:25:08;32.90;1.00
3778;DHT22;1904;50.076;8.660;2023-06-26T13:27:34;32.80;1.00
3778;DHT22;1904;50.076;8.660;2023-06-26T13:30:08;32.40;1.00
3778;DHT22;1904;50.076;8.660;2023-06-26T13:32:56;32.10;1.00
3778;DHT22;1904;50.076;8.660;2023-06-26T13:35:38;32.30;1.00
3778;DHT22;1904;50.076;8.660;2023-06-26T13:38:08;32.30;1.00
3778;DHT22;1904;50.076;8.660;2023-06-26T13:40:38;32.30;1.00
3778;DHT22;1904;50.076;8.660;2023-06-26T13:43:08;32.50;1.00
3778;DHT22;1904;50.076;8.660;2023-06-26T13:52:38;32.30;1.00
3778;DHT22;1904;50.076;8.660;2023-06-26T13:58:26;32.30;1.00
3778;DHT22;1904;50.076;8.660;2023-06-26T14:04:14;31.80;1.00
3778;DHT22;1904;50.076;8.660;2023-06-26T14:09:45;31.60;1.00
3778;DHT22;1904;50.076;8.660;2023-06-26T14:15:58;31.30;1.00
3778;DHT22;1904;50.076;8.660;2023-06-26T14:18:32;31.40;1.00
3778;DHT22;1904;50.076;8.660;2023-06-26T14:27:25;31.40;1.00
3778;DHT22;1904;50.076;8.660;2023-06-26T14:37:02;32.30;1.00
3778;DHT22;1904;50.076;8.660;2023-06-26T14:42:44;32.10;1.00
3778;DHT22;1904;50.076;8.660;2023-06-26T14:45:20;32.10;1.00
3778;DHT22;1904;50.076;8.660;2023-06-26T14:54:31;32.30;1.00
3778;DHT22;1904;50.076;8.660;2023-06-26T15:03:42;31.80;1.00
3778;DHT22;1904;50.076;8.660;2023-06-26T15:09:38;32.10;1.00
3778;DHT22;1904;50.076;8.660;2023-06-26T15:15:44;32.20;1.00
3778;DHT22;1904;50.076;8.660;2023-06-26T15:18:32;33.30;1.00
3778;DHT22;1904;50.076;8.660;2023-06-26T15:21:02;34.40;1.00
3778;DHT22;1904;50.076;8.660;2023-06-26T15:23:33;34.80;1.00
3778;DHT22;1904;50.076;8.660;2023-06-26T15:26:14;34.60;1.00
3778;DHT22;1904;50.076;8.660;2023-06-26T15:28:40;34.30;1.00
3778;DHT22;1904;50.076;8.660;2023-06-26T15:31:08;35.20;1.00
3778;DHT22;1904;50.076;8.660;2023-06-26T15:33:50;35.50;1.00
3778;DHT22;1904;50.076;8.660;2023-06-26T15:36:26;35.90;1.00
3778;DHT22;1904;50.076;8.660;2023-06-26T15:39:02;36.50;1.00
3778;DHT22;1904;50.076;8.660;2023-06-26T15:41:28;36.50;1.00
3778;DHT22;1904;50.076;8.660;2023-06-26T15:43:56;37.00;1.00
3778;DHT22;1904;50.076;8.660;2023-06-26T15:46:26;37.40;1.00
3778;DHT22;1904;50.076;8.660;2023-06-26T15:48:56;37.60;1.00
3778;DHT22;1904;50.076;8.660;2023-06-26T15:51:32;37.90;1.00
3778;DHT22;1904;50.076;8.660;2023-06-26T15:54:08;37.20;1.00
3778;DHT22;1904;50.076;8.660;2023-06-26T15:56:50;37.80;1.00
3778;DHT22;1904;50.076;8.660;2023-06-26T15:59:20;38.20;1.00
3778;DHT22;1904;50.076;8.660;2023-06-26T16:01:56;38.60;1.00
3778;DHT22;1904;50.076;8.660;2023-06-26T16:04:44;39.00;1.00
3778;DHT22;1904;50.076;8.660;2023-06-26T16:07:14;39.30;1.00
3778;DHT22;1904;50.076;8.660;2023-06-26T16:09:57;39.20;1.00
3778;DHT22;1904;50.076;8.660;2023-06-26T16:12:22;39.30;1.00
3778;DHT22;1904;50.076;8.660;2023-06-26T16:14:50;39.50;1.00
3778;DHT22;1904;50.076;8.660;2023-06-26T16:24:00;37.30;1.00
3778;DHT22;1904;50.076;8.660;2023-06-26T16:26:50;36.80;1.00
3778;DHT22;1904;50.076;8.660;2023-06-26T16:31:52;35.40;1.00
3778;DHT22;1904;50.076;8.660;2023-06-26T16:37:56;35.30;1.00
3778;DHT22;1904;50.076;8.660;2023-06-26T16:40:27;34.70;1.00
3778;DHT22;1904;50.076;8.660;2023-06-26T16:43:26;34.80;1.00
3778;DHT22;1904;50.076;8.660;2023-06-26T16:46:08;34.90;1.00
3778;DHT22;1904;50.076;8.660;2023-06-26T16:48:38;35.10;1.00
3778;DHT22;1904;50.076;8.660;2023-06-26T16:51:08;35.50;1.00
3778;DHT22;1904;50.076;8.660;2023-06-26T16:53:44;35.00;1.00
3778;DHT22;1904;50.076;8.660;2023-06-26T16:56:26;34.80;1.00
3778;DHT22;1904;50.076;8.660;2023-06-26T16:58:52;35.30;1.00
3778;DHT22;1904;50.076;8.660;2023-06-26T17:01:26;35.40;1.00
3778;DHT22;1904;50.076;8.660;2023-06-26T17:04:02;35.70;1.00
3778;DHT22;1904;50.076;8.660;2023-06-26T17:06:32;36.20;1.00
3778;DHT22;1904;50.076;8.660;2023-06-26T17:08:58;36.30;1.00
3778;DHT22;1904;50.076;8.660;2023-06-26T17:11:26;36.50;1.00
3778;DHT22;1904;50.076;8.660;2023-06-26T17:13:52;34.80;1.00
3778;DHT22;1904;50.076;8.660;2023-06-26T17:16:26;34.90;1.00
3778;DHT22;1904;50.076;8.660;2023-06-26T17:18:56;35.80;1.00
3778;DHT22;1904;50.076;8.660;2023-06-26T17:21:22;35.90;1.00
3778;DHT22;1904;50.076;8.660;2023-06-26T17:23:50;35.70;1.00
3778;DHT22;1904;50.076;8.660;2023-06-26T17:26:32;35.20;1.00
3778;DHT22;1904;50.076;8.660;2023-06-26T17:29:08;34.50;1.00
3778;DHT22;1904;50.076;8.660;2023-06-26T17:31:44;34.10;1.00
3778;DHT22;1904;50.076;8.660;2023-06-26T17:34:26;33.30;1.00
3778;DHT22;1904;50.076;8.660;2023-06-26T17:36:52;32.50;1.00
3778;DHT22;1904;50.076;8.660;2023-06-26T17:41:56;30.80;1.00
3778;DHT22;1904;50.076;8.660;2023-06-26T17:47:21;29.30;1.00
3778;DHT22;1904;50.076;8.660;2023-06-26T17:56:50;27.70;1.00
3778;DHT22;1904;50.076;8.660;2023-06-26T18:06:00;26.50;1.00
3778;DHT22;1904;50.076;8.660;2023-06-26T18:08:27;26.20;1.00
3778;DHT22;1904;50.076;8.660;2023-06-26T18:11:02;26.10;1.00
3778;DHT22;1904;50.076;8.660;2023-06-26T18:13:50;25.80;1.00
3778;DHT22;1904;50.076;8.660;2023-06-26T18:16:20;25.60;1.00
3778;DHT22;1904;50.076;8.660;2023-06-26T18:18:50;25.20;1.00
3778;DHT22;1904;50.076;8.660;2023-06-26T18:25:08;25.00;1.00
3778;DHT22;1904;50.076;8.660;2023-06-26T18:31:08;24.40;1.00
3778;DHT22;1904;50.076;8.660;2023-06-26T18:33:34;24.30;1.00
3778;DHT22;1904;50.076;8.660;2023-06-26T18:36:20;24.20;1.00
3778;DHT22;1904;50.076;8.660;2023-06-26T18:38:50;24.20;1.00
3778;DHT22;1904;50.076;8.660;2023-06-26T18:41:20;24.10;1.00
3778;DHT22;1904;50.076;8.660;2023-06-26T18:46:50;24.00;1.00
3778;DHT22;1904;50.076;8.660;2023-06-26T18:49:32;23.90;1.00
3778;DHT22;1904;50.076;8.660;2023-06-26T18:51:58;23.80;1.00
3778;DHT22;1904;50.076;8.660;2023-06-26T18:57:38;23.60;1.00
3778;DHT22;1904;50.076;8.660;2023-06-26T19:00:06;23.50;1.00
3778;DHT22;1904;50.076;8.660;2023-06-26T19:02:45;23.40;1.00
3778;DHT22;1904;50.076;8.660;2023-06-26T19:05:11;23.30;1.00
3778;DHT22;1904;50.076;8.660;2023-06-26T19:07:37;23.20;1.00
3778;DHT22;1904;50.076;8.660;2023-06-26T19:10:03;23.20;1.00
3778;DHT22;1904;50.076;8.660;2023-06-26T19:12:32;23.10;1.00
3778;DHT22;1904;50.076;8.660;2023-06-26T19:15:15;23.10;1.00
3778;DHT22;1904;50.076;8.660;2023-06-26T19:17:56;22.90;1.00
3778;DHT22;1904;50.076;8.660;2023-06-26T19:24:08;22.90;1.00
3778;DHT22;1904;50.076;8.660;2023-06-26T19:26:34;22.80;1.00
3778;DHT22;1904;50.076;8.660;2023-06-26T19:29:08;22.70;1.00
3778;DHT22;1904;50.076;8.660;2023-06-26T19:37:57;22.40;1.00
3778;DHT22;1904;50.076;8.660;2023-06-26T19:46:53;22.20;1.00
3778;DHT22;1904;50.076;8.660;2023-06-26T19:49:26;22.10;1.00
3778;DHT22;1904;50.076;8.660;2023-06-26T19:51:56;22.10;1.00
3778;DHT22;1904;50.076;8.660;2023-06-26T19:54:32;21.90;1.00
3778;DHT22;1904;50.076;8.660;2023-06-26T19:57:14;21.90;1.00
3778;DHT22;1904;50.076;8.660;2023-06-26T19:59:44;21.90;1.00
3778;DHT22;1904;50.076;8.660;2023-06-26T20:02:14;21.80;1.00
3778;DHT22;1904;50.076;8.660;2023-06-26T20:04:44;21.80;1.00
3778;DHT22;1904;50.076;8.660;2023-06-26T20:07:20;21.80;1.00
3778;DHT22;1904;50.076;8.660;2023-06-26T20:09:51;21.70;1.00
3778;DHT22;1904;50.076;8.660;2023-06-26T20:12:20;21.70;1.00
3778;DHT22;1904;50.076;8.660;2023-06-26T20:14:50;21.60;1.00
3778;DHT22;1904;50.076;8.660;2023-06-26T20:17:20;21.60;1.00
3778;DHT22;1904;50.076;8.660;2023-06-26T20:19:51;21.60;1.00
3778;DHT22;1904;50.076;8.660;2023-06-26T20:22:20;21.60;1.00
3778;DHT22;1904;50.076;8.660;2023-06-26T20:24:45;21.60;1.00
3778;DHT22;1904;50.076;8.660;2023-06-26T20:27:11;21.50;1.00
3778;DHT22;1904;50.076;8.660;2023-06-26T20:29:37;21.50;1.00
3778;DHT22;1904;50.076;8.660;2023-06-26T20:32:02;21.50;1.00
3778;DHT22;1904;50.076;8.660;2023-06-26T20:34:32;21.50;1.00
3778;DHT22;1904;50.076;8.660;2023-06-26T20:37:08;21.40;1.00
3778;DHT22;1904;50.076;8.660;2023-06-26T20:39:34;21.40;1.00
3778;DHT22;1904;50.076;8.660;2023-06-26T20:42:09;21.40;1.00
3778;DHT22;1904;50.076;8.660;2023-06-26T20:44:44;21.40;1.00
3778;DHT22;1904;50.076;8.660;2023-06-26T20:47:11;21.30;1.00
3778;DHT22;1904;50.076;8.660;2023-06-26T20:49:47;21.20;1.00
3778;DHT22;1904;50.076;8.660;2023-06-26T20:52:16;21.20;1.00
3778;DHT22;1904;50.076;8.660;2023-06-26T20:55:14;21.20;1.00
3778;DHT22;1904;50.076;8.660;2023-06-26T20:57:40;21.20;1.00
3778;DHT22;1904;50.076;8.660;2023-06-26T21:00:09;21.10;1.00
3778;DHT22;1904;50.076;8.660;2023-06-26T21:02:35;21.00;1.00
3778;DHT22;1904;50.076;8.660;2023-06-26T21:05:04;21.00;1.00
3778;DHT22;1904;50.076;8.660;2023-06-26T21:07:29;21.00;1.00
3778;DHT22;1904;50.076;8.660;2023-06-26T21:09:55;21.00;1.00
3778;DHT22;1904;50.076;8.660;2023-06-26T21:12:22;20.90;1.00
3778;DHT22;1904;50.076;8.660;2023-06-26T21:14:50;20.90;1.00
3778;DHT22;1904;50.076;8.660;2023-06-26T21:17:16;20.80;1.00
3778;DHT22;1904;50.076;8.660;2023-06-26T21:19:42;20.80;1.00
3778;DHT22;1904;50.076;8.660;2023-06-26T21:22:26;20.70;1.00
3778;DHT22;1904;50.076;8.660;2023-06-26T21:24:52;20.70;1.00
3778;DHT22;1904;50.076;8.660;2023-06-26T21:27:26;20.70;1.00
3778;DHT22;1904;50.076;8.660;2023-06-26T21:30:03;20.70;1.00
3778;DHT22;1904;50.076;8.660;2023-06-26T21:33:02;20.60;1.00
3778;DHT22;1904;50.076;8.660;2023-06-26T21:35:28;20.60;1.00
3778;DHT22;1904;50.076;8.660;2023-06-26T21:38:02;20.60;1.00
3778;DHT22;1904;50.076;8.660;2023-06-26T21:40:28;20.60;1.00
3778;DHT22;1904;50.076;8.660;2023-06-26T21:42:54;20.50;1.00
3778;DHT22;1904;50.076;8.660;2023-06-26T21:45:26;20.50;1.00
3778;DHT22;1904;50.076;8.660;2023-06-26T21:47:52;20.50;1.00
3778;DHT22;1904;50.076;8.660;2023-06-26T21:50:20;20.40;1.00
3778;DHT22;1904;50.076;8.660;2023-06-26T21:53:02;20.40;1.00
3778;DHT22;1904;50.076;8.660;2023-06-26T21:55:32;20.30;1.00
3778;DHT22;1904;50.076;8.660;2023-06-26T21:57:58;20.30;1.00
3778;DHT22;1904;50.076;8.660;2023-06-26T22:00:26;20.30;1.00
3778;DHT22;1904;50.076;8.660;2023-06-26T22:03:03;20.20;1.00
3778;DHT22;1904;50.076;8.660;2023-06-26T22:05:28;20.20;1.00